Time;durP1;ratioP1;P1;durP2;ratioP2;P2;SDS_P1;SDS_P2;PMS_P1;PMS_P2;Temp;Humidity;BMP_temperature;BMP_pressure;BME280_temperature;BME280_humidity;BME280_pressure;Samples;Min_cycle;Max_cycle;Signal;HPM_P1;HPM_P2
2022/06/28 00:00:58;;;;;;;13.10;11.87;;;17.40;99.90;;;;;;5111938;28;20464;-65
2022/06/28 00:03:25;;;;;;;13.77;12.30;;;17.40;99.90;;;;;;5113019;28;21030;-64
2022/06/28 00:05:53;;;;;;;16.50;14.90;;;17.40;99.90;;;;;;5112405;28;20872;-63
2022/06/28 00:08:21;;;;;;;13.43;12.13;;;17.30;99.90;;;;;;5112005;28;20548;-64
2022/06/28 00:10:49;;;;;;;13.17;11.87;;;17.30;99.90;;;;;;5113533;28;20486;-63
2022/06/28 00:13:16;;;;;;;15.73;12.60;;;17.30;99.90;;;;;;5113251;28;20462;-63
2022/06/28 00:18:28;;;;;;;13.83;12.50;;;17.30;99.90;;;;;;5113714;28;21034;-64
2022/06/28 00:20:55;;;;;;;12.43;11.17;;;17.30;99.90;;;;;;5114945;28;20508;-64
2022/06/28 00:23:24;;;;;;;12.43;11.23;;;17.30;99.90;;;;;;5113113;28;20916;-64
2022/06/28 00:25:51;;;;;;;13.73;12.53;;;17.30;99.90;;;;;;5118210;28;20862;-65
2022/06/28 00:28:18;;;;;;;12.83;11.73;;;17.30;99.90;;;;;;5119703;28;21009;-64
2022/06/28 00:30:46;;;;;;;12.30;11.20;;;17.30;99.90;;;;;;5122708;28;20948;-64
2022/06/28 00:33:14;;;;;;;15.00;13.50;;;17.20;99.90;;;;;;5119384;28;20454;-64
2022/06/28 00:35:41;;;;;;;13.50;12.20;;;17.20;99.90;;;;;;5121347;28;20485;-65
2022/06/28 00:38:09;;;;;;;12.67;11.47;;;17.20;99.90;;;;;;5117839;28;20944;-63
2022/06/28 00:40:44;;;;;;;13.00;11.80;;;17.20;99.90;;;;;;5127485;28;20442;-64
2022/06/28 00:43:11;;;;;;;12.60;11.40;;;17.20;99.90;;;;;;5128939;28;20463;-63
2022/06/28 00:45:38;;;;;;;13.57;12.20;;;17.20;99.90;;;;;;5128996;28;20442;-65
2022/06/28 00:48:07;;;;;;;13.83;12.50;;;17.20;99.90;;;;;;5128826;28;20474;-64
2022/06/28 00:50:36;;;;;;;12.50;11.17;;;17.20;99.90;;;;;;5125568;28;20465;-63
2022/06/28 00:53:05;;;;;;;18.13;12.30;;;17.20;99.90;;;;;;5116684;28;20490;-65
2022/06/28 00:55:32;;;;;;;16.27;12.60;;;17.20;99.90;;;;;;5119183;28;20533;-64
2022/06/28 00:58:01;;;;;;;17.90;14.50;;;17.10;99.90;;;;;;5119776;28;20525;-64
2022/06/28 01:00:29;;;;;;;13.47;12.27;;;17.00;99.90;;;;;;5123183;28;20972;-64
2022/06/28 01:02:56;;;;;;;13.73;12.43;;;17.00;99.90;;;;;;5120863;28;20462;-64
2022/06/28 01:05:24;;;;;;;13.40;12.00;;;16.90;99.90;;;;;;5123972;28;21034;-65
2022/06/28 01:07:51;;;;;;;16.37;13.40;;;16.90;99.90;;;;;;5123431;28;20508;-64
2022/06/28 01:10:18;;;;;;;14.30;12.67;;;16.80;99.90;;;;;;5125016;28;20458;-64
2022/06/28 01:12:46;;;;;;;14.00;12.60;;;16.70;99.90;;;;;;5122813;28;20865;-64
2022/06/28 01:15:14;;;;;;;13.67;12.00;;;16.70;99.90;;;;;;5116456;28;20505;-64
2022/06/28 01:17:42;;;;;;;14.13;12.83;;;16.60;99.90;;;;;;5117306;28;20569;-64
2022/06/28 01:20:11;;;;;;;13.90;11.80;;;16.50;99.90;;;;;;5118503;28;20457;-64
2022/06/28 01:22:41;;;;;;;14.40;13.10;;;16.40;99.90;;;;;;5117393;28;20577;-64
2022/06/28 01:25:10;;;;;;;15.77;12.97;;;16.30;99.90;;;;;;5119661;28;20458;-64
2022/06/28 01:27:38;;;;;;;16.23;13.83;;;16.30;99.90;;;;;;5120138;28;20489;-64
2022/06/28 01:30:07;;;;;;;17.67;13.77;;;16.20;99.90;;;;;;5118360;28;21009;-64
2022/06/28 01:32:34;;;;;;;15.67;13.77;;;16.10;99.90;;;;;;5117151;28;20491;-65
2022/06/28 01:35:02;;;;;;;15.17;13.67;;;16.10;99.90;;;;;;5115878;28;20551;-64
2022/06/28 01:37:30;;;;;;;15.40;13.83;;;16.00;99.90;;;;;;5115389;28;20587;-64
2022/06/28 01:39:59;;;;;;;14.73;13.23;;;15.90;99.90;;;;;;5115260;28;20508;-64
2022/06/28 01:42:28;;;;;;;14.67;13.13;;;15.90;99.90;;;;;;5116351;28;20441;-64
2022/06/28 01:44:57;;;;;;;13.93;12.63;;;15.80;99.90;;;;;;5115877;28;20500;-64
2022/06/28 01:47:25;;;;;;;14.00;12.70;;;15.80;99.90;;;;;;5115748;28;20507;-64
2022/06/28 01:49:53;;;;;;;13.60;12.40;;;15.70;99.90;;;;;;5114359;28;20514;-64
2022/06/28 01:52:21;;;;;;;12.93;11.63;;;15.70;99.90;;;;;;5116481;28;20446;-64
2022/06/28 01:54:48;;;;;;;13.60;12.40;;;15.70;99.90;;;;;;5115618;27;20477;-64
2022/06/28 01:57:17;;;;;;;13.97;12.53;;;15.60;99.90;;;;;;5114582;28;20477;-63
2022/06/28 01:59:45;;;;;;;12.93;11.60;;;15.60;99.90;;;;;;5115406;28;21837;-63
2022/06/28 02:02:12;;;;;;;14.17;12.90;;;15.60;99.90;;;;;;5114308;28;20550;-65
2022/06/28 02:04:39;;;;;;;13.03;11.67;;;15.50;99.90;;;;;;5114270;28;20449;-64
2022/06/28 02:07:06;;;;;;;15.40;12.33;;;15.50;99.90;;;;;;5115224;28;20522;-64
2022/06/28 02:09:34;;;;;;;15.80;12.40;;;15.50;99.90;;;;;;5114891;28;20457;-64
2022/06/28 02:12:01;;;;;;;14.27;12.77;;;15.40;99.90;;;;;;5115042;28;20462;-64
2022/06/28 02:14:30;;;;;;;12.13;10.93;;;15.40;99.90;;;;;;5115258;28;20525;-63
2022/06/28 02:16:57;;;;;;;15.03;12.40;;;15.30;99.90;;;;;;5115664;28;20508;-63
2022/06/28 02:19:25;;;;;;;14.00;12.13;;;15.30;99.90;;;;;;5114503;28;20489;-64
2022/06/28 02:21:53;;;;;;;13.40;11.10;;;15.20;99.90;;;;;;5115536;28;20452;-64
2022/06/28 02:24:20;;;;;;;14.40;12.90;;;15.20;99.90;;;;;;5113004;28;20953;-63
2022/06/28 02:26:48;;;;;;;15.13;11.90;;;15.20;99.90;;;;;;5115410;28;20973;-64
2022/06/28 02:29:15;;;;;;;13.97;12.67;;;15.10;99.90;;;;;;5115042;28;20529;-64
2022/06/28 02:31:44;;;;;;;15.37;12.50;;;15.10;99.90;;;;;;5116370;28;20788;-64
2022/06/28 02:40:21;;;;;;;13.53;12.17;;;15.00;99.90;;;;;;5112832;27;20457;-63
2022/06/28 02:42:28;;;;;;;14.70;12.17;;;15.00;99.90;;;;;;5114727;28;20480;-64
2022/06/28 02:44:55;;;;;;;15.17;13.67;;;15.00;99.90;;;;;;5114313;28;20485;-64
2022/06/28 02:47:24;;;;;;;13.30;11.70;;;15.00;99.90;;;;;;5114254;28;20480;-63
2022/06/28 02:49:51;;;;;;;12.13;10.90;;;15.10;99.90;;;;;;5111459;28;20488;-65
2022/06/28 02:52:18;;;;;;;13.67;11.73;;;15.10;99.90;;;;;;5114140;28;20537;-64
2022/06/28 02:54:45;;;;;;;12.10;10.90;;;15.10;99.90;;;;;;5114450;28;20468;-63
2022/06/28 02:57:13;;;;;;;13.20;11.87;;;15.10;99.90;;;;;;5114184;28;20477;-64
2022/06/28 02:59:40;;;;;;;13.10;11.90;;;15.20;99.90;;;;;;5114626;28;20510;-64
2022/06/28 03:02:07;;;;;;;14.13;12.60;;;15.20;99.90;;;;;;5112375;28;20464;-65
2022/06/28 03:04:36;;;;;;;14.43;11.80;;;15.20;99.90;;;;;;5112313;28;20887;-62
2022/06/28 03:07:04;;;;;;;13.30;12.00;;;15.20;99.90;;;;;;5114847;28;20461;-64
2022/06/28 03:09:31;;;;;;;12.10;10.93;;;15.20;99.90;;;;;;5113968;28;20532;-64
2022/06/28 03:11:58;;;;;;;12.40;11.10;;;15.30;99.90;;;;;;5112389;28;20492;-63
2022/06/28 03:14:26;;;;;;;14.03;12.67;;;15.30;99.90;;;;;;5113499;28;20453;-64
2022/06/28 03:16:53;;;;;;;14.10;12.57;;;15.30;99.90;;;;;;5114288;28;21072;-63
2022/06/28 03:19:20;;;;;;;14.47;12.70;;;15.30;99.90;;;;;;5113385;28;20949;-64
2022/06/28 03:21:49;;;;;;;14.20;12.70;;;15.20;99.90;;;;;;5115094;28;21005;-64
2022/06/28 03:24:16;;;;;;;13.73;12.33;;;15.20;99.90;;;;;;5124042;28;20936;-65
2022/06/28 03:26:44;;;;;;;14.37;13.00;;;15.20;99.90;;;;;;5125498;28;20485;-65
2022/06/28 03:29:11;;;;;;;15.83;13.77;;;15.20;99.90;;;;;;5126325;28;20474;-64
2022/06/28 03:31:38;;;;;;;13.60;12.23;;;15.10;99.90;;;;;;5125137;28;20453;-63
2022/06/28 03:34:06;;;;;;;16.77;14.03;;;15.10;99.90;;;;;;5114692;28;20460;-63
2022/06/28 03:36:33;;;;;;;16.67;13.63;;;15.10;99.90;;;;;;5113226;28;20480;-64
2022/06/28 03:39:01;;;;;;;15.50;13.90;;;15.10;99.90;;;;;;5113368;28;20914;-63
2022/06/28 03:41:29;;;;;;;15.93;14.13;;;15.10;99.90;;;;;;5113052;27;20545;-64
2022/06/28 03:43:56;;;;;;;17.00;15.20;;;15.10;99.90;;;;;;5113834;28;20644;-64
2022/06/28 03:46:23;;;;;;;16.17;14.60;;;15.20;99.90;;;;;;5112179;28;20461;-64
2022/06/28 03:48:51;;;;;;;15.93;13.63;;;15.20;99.90;;;;;;5112765;28;20584;-64
2022/06/28 03:51:19;;;;;;;15.10;13.70;;;15.20;99.90;;;;;;5113378;28;20534;-63
2022/06/28 03:53:46;;;;;;;15.77;14.27;;;15.30;99.90;;;;;;5113955;28;20445;-64
2022/06/28 03:56:15;;;;;;;16.23;14.47;;;15.30;99.90;;;;;;5112808;28;20478;-64
2022/06/28 03:58:42;;;;;;;17.77;16.07;;;15.30;99.90;;;;;;5114144;28;20475;-65
2022/06/28 04:01:10;;;;;;;17.53;15.20;;;15.40;99.90;;;;;;5114196;28;20445;-63
2022/06/28 04:03:37;;;;;;;17.43;15.20;;;15.40;99.90;;;;;;5112574;28;20510;-64
2022/06/28 04:06:05;;;;;;;18.10;16.27;;;15.40;99.90;;;;;;5111549;28;20457;-64
2022/06/28 04:09:55;;;;;;;18.00;16.10;;;15.50;99.90;;;;;;5121029;27;20568;-64
2022/06/28 04:12:22;;;;;;;18.20;15.00;;;15.60;99.90;;;;;;5107930;28;20454;-65
2022/06/28 04:14:50;;;;;;;16.67;14.97;;;15.70;99.90;;;;;;5108955;28;20522;-64
2022/06/28 04:17:17;;;;;;;15.47;13.87;;;16.00;99.90;;;;;;5106917;28;20486;-65
2022/06/28 04:19:44;;;;;;;17.27;14.50;;;16.40;99.90;;;;;;5097325;28;20957;-64
2022/06/28 04:22:11;;;;;;;16.10;14.50;;;16.80;99.90;;;;;;5106184;28;20489;-64
2022/06/28 04:24:42;;;;;;;14.90;13.33;;;17.10;99.90;;;;;;5108877;28;20544;-65
2022/06/28 04:27:11;;;;;;;15.77;14.10;;;17.20;99.90;;;;;;5110297;28;20476;-64
2022/06/28 04:29:38;;;;;;;14.33;12.73;;;17.20;99.90;;;;;;5108488;28;20503;-64
2022/06/28 04:32:07;;;;;;;15.50;13.97;;;17.00;99.90;;;;;;5101833;28;20530;-65
2022/06/28 04:34:34;;;;;;;15.57;13.70;;;16.80;99.90;;;;;;5089027;28;20871;-64
2022/06/28 04:37:01;;;;;;;17.60;15.80;;;16.70;99.90;;;;;;5098252;28;20556;-64
2022/06/28 04:39:29;;;;;;;15.70;14.10;;;16.60;99.90;;;;;;5110914;28;20436;-64
2022/06/28 04:41:56;;;;;;;17.63;15.07;;;16.50;99.90;;;;;;5110821;28;20538;-64
2022/06/28 04:44:25;;;;;;;16.97;15.17;;;16.50;99.90;;;;;;5110678;28;20449;-64
2022/06/28 04:46:52;;;;;;;17.30;14.70;;;16.40;99.90;;;;;;5110209;28;20508;-63
2022/06/28 04:49:20;;;;;;;14.70;13.27;;;16.40;99.90;;;;;;5087663;28;20529;-64
2022/06/28 04:51:47;;;;;;;15.07;13.50;;;16.40;99.90;;;;;;5086773;28;20455;-65
2022/06/28 04:54:14;;;;;;;18.60;14.30;;;16.40;99.90;;;;;;5083780;28;20864;-64
2022/06/28 04:56:41;;;;;;;15.70;14.10;;;16.50;99.90;;;;;;5089725;28;20476;-64
2022/06/28 04:59:09;;;;;;;17.67;14.20;;;16.50;99.90;;;;;;5090071;28;20443;-64
2022/06/28 05:01:38;;;;;;;15.97;14.30;;;16.50;99.90;;;;;;5095888;28;20445;-64
2022/06/28 05:04:05;;;;;;;16.60;14.90;;;16.60;99.90;;;;;;5104472;28;20486;-65
2022/06/28 05:06:32;;;;;;;14.37;12.93;;;16.80;99.90;;;;;;5102660;28;20446;-64
2022/06/28 05:09:00;;;;;;;14.37;12.80;;;17.30;99.90;;;;;;5094714;28;20535;-62
2022/06/28 05:11:28;;;;;;;13.33;12.10;;;17.80;99.90;;;;;;5089663;28;20442;-62
2022/06/28 05:13:56;;;;;;;12.90;11.60;;;18.20;99.90;;;;;;5089778;28;20451;-63
2022/06/28 05:16:24;;;;;;;13.83;11.40;;;18.50;99.90;;;;;;5089696;28;20448;-64
2022/06/28 05:18:52;;;;;;;14.00;12.30;;;18.60;99.30;;;;;;5092563;28;20442;-63
2022/06/28 05:21:20;;;;;;;13.37;11.20;;;18.80;98.70;;;;;;5086644;28;20443;-62
2022/06/28 05:23:47;;;;;;;12.70;10.80;;;19.00;97.80;;;;;;5088268;28;20447;-62
2022/06/28 05:26:15;;;;;;;12.47;11.17;;;19.10;96.90;;;;;;5089526;28;20449;-62
2022/06/28 05:28:42;;;;;;;12.53;11.30;;;19.30;95.50;;;;;;5086689;28;20481;-64
2022/06/28 05:31:10;;;;;;;12.40;10.20;;;19.40;94.40;;;;;;5088949;28;20513;-63
2022/06/28 05:33:37;;;;;;;13.37;10.97;;;19.40;94.20;;;;;;5087757;28;20439;-63
2022/06/28 05:36:06;;;;;;;12.53;11.33;;;19.40;94.00;;;;;;5085566;28;20511;-63
2022/06/28 05:38:34;;;;;;;12.67;10.80;;;19.60;93.00;;;;;;5082085;28;20471;-63
2022/06/28 05:41:01;;;;;;;11.87;10.60;;;19.60;92.10;;;;;;5083156;28;20451;-62
2022/06/28 05:43:28;;;;;;;11.53;10.30;;;19.60;91.50;;;;;;5087666;28;20444;-63
2022/06/28 05:45:56;;;;;;;10.97;9.87;;;19.60;91.30;;;;;;5084236;28;20449;-62
2022/06/28 05:48:23;;;;;;;11.03;9.97;;;19.60;91.10;;;;;;5085060;28;21050;-64
2022/06/28 05:50:52;;;;;;;10.83;9.80;;;19.70;90.80;;;;;;5086990;28;20451;-63
2022/06/28 05:53:21;;;;;;;10.60;9.50;;;19.80;90.40;;;;;;5081729;28;20875;-64
2022/06/28 05:55:48;;;;;;;9.90;8.90;;;20.10;90.00;;;;;;5080524;28;20454;-64
2022/06/28 05:58:15;;;;;;;9.83;8.50;;;20.20;87.60;;;;;;5077693;28;20471;-63
2022/06/28 06:00:43;;;;;;;9.70;8.77;;;20.10;87.20;;;;;;5077212;28;20447;-62
2022/06/28 06:03:11;;;;;;;8.73;7.83;;;20.10;86.50;;;;;;5078139;28;20451;-64
2022/06/28 06:05:38;;;;;;;8.83;8.07;;;20.10;84.80;;;;;;5076978;28;20935;-63
2022/06/28 06:08:06;;;;;;;10.53;8.03;;;20.00;84.90;;;;;;5075822;28;20560;-63
2022/06/28 06:10:34;;;;;;;9.10;8.20;;;20.00;84.80;;;;;;5076979;28;20459;-63
2022/06/28 06:13:02;;;;;;;9.00;7.33;;;20.00;84.30;;;;;;5087083;28;20458;-63
2022/06/28 06:15:29;;;;;;;8.23;7.13;;;20.00;83.30;;;;;;5093282;28;20446;-63
2022/06/28 06:17:57;;;;;;;8.70;6.70;;;19.80;83.30;;;;;;5075036;28;20820;-63
2022/06/28 06:20:25;;;;;;;9.80;6.20;;;19.80;83.40;;;;;;5075379;28;20494;-62
2022/06/28 06:22:52;;;;;;;9.03;8.00;;;19.80;82.70;;;;;;5075448;28;20885;-64
2022/06/28 06:25:20;;;;;;;7.30;6.70;;;19.70;81.70;;;;;;5075618;28;20443;-63
2022/06/28 06:27:48;;;;;;;7.10;6.40;;;19.60;81.30;;;;;;5075802;28;21070;-64
2022/06/28 06:30:16;;;;;;;8.97;6.33;;;19.50;81.50;;;;;;5078815;28;20513;-62
2022/06/28 06:32:43;;;;;;;7.00;5.80;;;19.50;81.90;;;;;;5077085;28;20455;-63
2022/06/28 06:35:10;;;;;;;7.93;6.60;;;19.40;81.40;;;;;;5081056;28;20477;-62
2022/06/28 06:37:38;;;;;;;7.80;5.90;;;19.40;81.50;;;;;;5079812;28;20462;-63
2022/06/28 06:40:06;;;;;;;6.70;5.40;;;19.30;80.30;;;;;;5079071;28;20820;-63
2022/06/28 06:42:33;;;;;;;5.80;5.30;;;19.10;79.70;;;;;;5096729;28;20459;-63
2022/06/28 06:45:02;;;;;;;7.00;5.53;;;19.10;79.70;;;;;;5097017;28;20453;-64
2022/06/28 06:47:29;;;;;;;7.23;6.07;;;19.10;79.10;;;;;;5075959;28;20485;-64
2022/06/28 06:49:57;;;;;;;9.50;5.17;;;19.10;78.80;;;;;;5075190;28;21102;-64
2022/06/28 06:52:24;;;;;;;7.50;5.00;;;19.10;78.50;;;;;;5075478;28;20479;-62
2022/06/28 06:54:51;;;;;;;8.20;5.80;;;19.20;78.50;;;;;;5079165;28;20483;-64
2022/06/28 06:57:19;;;;;;;6.30;4.03;;;19.30;78.20;;;;;;5075491;28;21039;-64
2022/06/28 06:59:46;;;;;;;5.30;4.20;;;19.20;77.00;;;;;;5079436;28;20460;-64
2022/06/28 07:02:14;;;;;;;8.33;4.40;;;19.30;76.00;;;;;;5098602;28;20463;-65
2022/06/28 07:04:42;;;;;;;4.80;3.40;;;19.30;75.40;;;;;;5073056;28;20464;-65
2022/06/28 07:07:09;;;;;;;4.53;3.40;;;19.40;74.10;;;;;;5075962;28;20472;-67
2022/06/28 07:09:36;;;;;;;6.10;3.30;;;19.40;72.70;;;;;;5075483;28;20513;-66
2022/06/28 07:12:04;;;;;;;4.10;2.90;;;19.40;71.40;;;;;;5073619;28;20525;-65
2022/06/28 07:14:31;;;;;;;4.30;2.60;;;19.40;70.20;;;;;;5071247;28;20492;-67
2022/06/28 07:16:59;;;;;;;6.80;3.50;;;19.50;69.50;;;;;;5070658;28;20484;-66
2022/06/28 07:19:28;;;;;;;4.37;2.60;;;19.60;69.60;;;;;;5079920;28;20460;-66
2022/06/28 07:21:55;;;;;;;5.23;3.20;;;19.70;68.10;;;;;;5098519;28;20475;-66
2022/06/28 07:24:22;;;;;;;5.27;2.70;;;19.90;67.00;;;;;;5089560;28;20458;-65
2022/06/28 07:26:49;;;;;;;6.37;2.70;;;20.00;66.00;;;;;;5075830;28;20496;-65
2022/06/28 07:29:17;;;;;;;3.50;2.67;;;20.00;65.60;;;;;;5072900;28;20566;-65
2022/06/28 07:31:44;;;;;;;5.13;2.53;;;20.00;65.20;;;;;;5073323;28;20488;-65
2022/06/28 07:34:11;;;;;;;6.37;3.50;;;20.00;64.60;;;;;;5071269;28;20522;-64
2022/06/28 07:36:40;;;;;;;5.73;3.17;;;20.00;63.80;;;;;;5072589;28;20507;-65
2022/06/28 07:39:08;;;;;;;3.53;2.10;;;20.10;63.20;;;;;;5072899;28;20496;-65
2022/06/28 07:41:35;;;;;;;5.37;2.10;;;20.10;62.80;;;;;;5071980;28;20980;-64
2022/06/28 07:44:02;;;;;;;3.40;2.70;;;20.20;62.60;;;;;;5070733;28;20530;-64
2022/06/28 07:46:30;;;;;;;4.23;2.10;;;20.30;62.10;;;;;;5072416;28;20477;-63
2022/06/28 07:48:57;;;;;;;2.77;1.90;;;20.50;61.40;;;;;;5072997;28;20474;-63
2022/06/28 07:54:10;;;;;;;5.73;2.80;;;20.60;59.50;;;;;;5071175;28;20545;-64
2022/06/28 07:56:38;;;;;;;4.83;2.53;;;20.60;59.20;;;;;;5052786;28;20494;-64
2022/06/28 07:59:05;;;;;;;6.27;2.93;;;20.60;59.20;;;;;;5052756;28;20495;-64
2022/06/28 08:01:33;;;;;;;4.43;2.63;;;20.70;58.80;;;;;;5053002;28;20478;-64
2022/06/28 08:04:00;;;;;;;3.47;2.50;;;20.80;58.50;;;;;;5052848;28;20997;-65
2022/06/28 08:06:27;;;;;;;3.40;2.50;;;20.90;58.10;;;;;;5052690;28;20450;-64
2022/06/28 08:08:54;;;;;;;3.60;2.50;;;21.00;57.90;;;;;;5051526;28;20454;-64
2022/06/28 08:11:23;;;;;;;3.50;2.50;;;21.10;57.80;;;;;;5052280;28;20523;-64
2022/06/28 08:13:52;;;;;;;3.43;2.57;;;21.20;57.30;;;;;;5052181;28;20868;-66
2022/06/28 08:16:19;;;;;;;6.87;2.63;;;21.30;57.00;;;;;;5051846;28;20455;-65
2022/06/28 08:18:46;;;;;;;8.50;3.07;;;21.40;56.80;;;;;;5052490;28;20796;-65
2022/06/28 08:21:13;;;;;;;5.33;2.97;;;21.50;56.50;;;;;;5052437;28;20488;-66
2022/06/28 08:23:41;;;;;;;4.20;2.50;;;21.70;56.40;;;;;;5052511;28;20442;-66
2022/06/28 08:26:08;;;;;;;5.37;2.60;;;21.80;55.90;;;;;;5050464;28;20450;-65
2022/06/28 08:28:36;;;;;;;3.60;2.40;;;21.90;55.30;;;;;;5052446;28;20496;-66
2022/06/28 08:31:04;;;;;;;4.10;2.37;;;22.00;54.50;;;;;;5051826;28;20512;-64
2022/06/28 08:33:31;;;;;;;3.60;2.27;;;22.10;53.70;;;;;;5052421;28;20532;-65
2022/06/28 08:35:58;;;;;;;4.03;2.43;;;22.20;53.50;;;;;;5052499;28;20901;-64
2022/06/28 08:38:26;;;;;;;3.50;1.80;;;22.30;53.00;;;;;;5052255;28;20501;-65
2022/06/28 08:40:54;;;;;;;2.67;2.17;;;22.50;52.60;;;;;;5053049;28;20482;-63
2022/06/28 08:43:22;;;;;;;4.23;2.07;;;22.70;52.40;;;;;;5072617;28;20451;-64
2022/06/28 08:45:51;;;;;;;3.40;2.13;;;23.00;51.80;;;;;;5072192;28;20922;-64
2022/06/28 08:48:22;;;;;;;3.03;2.60;;;23.10;51.10;;;;;;5072110;28;20500;-63
2022/06/28 08:50:53;;;;;;;3.07;2.00;;;23.00;50.60;;;;;;5071033;28;20470;-65
2022/06/28 08:53:22;;;;;;;3.63;2.00;;;22.80;50.70;;;;;;5072572;28;20431;-66
2022/06/28 08:55:50;;;;;;;5.07;2.53;;;22.70;50.90;;;;;;5074125;28;20445;-64
2022/06/28 08:58:18;;;;;;;5.67;2.43;;;22.70;51.10;;;;;;5076059;28;20466;-65
2022/06/28 09:00:46;;;;;;;3.93;2.37;;;22.70;51.30;;;;;;5075894;28;20449;-64
2022/06/28 09:03:18;;;;;;;3.80;2.00;;;22.70;51.30;;;;;;5073615;28;20477;-64
2022/06/28 09:05:46;;;;;;;4.97;2.47;;;22.80;51.90;;;;;;5076054;28;20429;-66
2022/06/28 09:08:13;;;;;;;3.17;2.13;;;22.90;50.70;;;;;;5075354;28;20477;-64
2022/06/28 09:10:42;;;;;;;3.60;2.40;;;22.90;50.50;;;;;;5068980;28;20475;-64
2022/06/28 09:13:11;;;;;;;3.67;2.13;;;22.90;50.50;;;;;;5055698;28;20505;-65
2022/06/28 09:15:51;;;;;;;5.67;2.37;;;22.70;50.90;;;;;;5055563;28;20498;-65
2022/06/28 09:18:23;;;;;;;3.30;1.80;;;22.40;51.40;;;;;;5056255;28;20521;-65
2022/06/28 09:20:52;;;;;;;2.67;1.80;;;22.20;51.80;;;;;;5075854;28;20434;-65
2022/06/28 09:23:25;;;;;;;5.00;2.47;;;22.30;51.50;;;;;;5075791;28;20819;-65
2022/06/28 09:25:53;;;;;;;4.70;2.40;;;22.50;51.50;;;;;;5075244;28;20508;-66
2022/06/28 09:28:28;;;;;;;3.17;1.70;;;22.80;50.70;;;;;;5074681;28;20496;-66
2022/06/28 09:31:14;;;;;;;3.20;1.87;;;23.10;50.20;;;;;;5082646;28;20498;-64
2022/06/28 09:33:44;;;;;;;4.93;1.67;;;23.30;49.90;;;;;;5085031;28;20423;-65
2022/06/28 09:36:13;;;;;;;2.20;1.77;;;23.50;48.80;;;;;;5080623;28;20962;-67
2022/06/28 09:38:41;;;;;;;2.50;1.77;;;23.60;47.90;;;;;;5067131;28;20585;-64
2022/06/28 09:41:20;;;;;;;7.50;1.90;;;23.60;47.30;;;;;;5056131;28;20476;-65
2022/06/28 09:43:55;;;;;;;5.30;2.57;;;23.60;47.40;;;;;;5055687;28;20459;-64
2022/06/28 09:46:26;;;;;;;2.17;1.40;;;23.80;47.60;;;;;;5053564;28;20942;-66
2022/06/28 09:48:57;;;;;;;2.50;1.80;;;24.10;47.40;;;;;;5055350;28;20876;-66
2022/06/28 09:51:26;;;;;;;5.70;1.60;;;24.60;46.90;;;;;;5055119;28;20538;-65
2022/06/28 09:53:56;;;;;;;4.90;2.00;;;24.90;46.40;;;;;;5066113;28;20889;-66
2022/06/28 09:56:25;;;;;;;2.37;1.70;;;25.30;45.70;;;;;;5078273;28;20804;-65
2022/06/28 09:58:53;;;;;;;2.90;1.80;;;25.60;44.80;;;;;;5073604;28;20839;-66
2022/06/28 10:01:21;;;;;;;4.83;1.90;;;25.70;43.70;;;;;;5073443;28;20566;-64
2022/06/28 10:03:50;;;;;;;2.53;1.47;;;25.60;43.30;;;;;;5069339;28;20467;-66
2022/06/28 10:06:21;;;;;;;2.90;1.93;;;25.50;43.10;;;;;;5054404;28;20957;-66
2022/06/28 10:08:49;;;;;;;2.87;1.53;;;25.60;42.70;;;;;;5080352;28;20510;-66
2022/06/28 10:11:17;;;;;;;4.77;2.00;;;25.70;42.60;;;;;;5096015;28;20482;-65
2022/06/28 10:16:47;;;;;;;5.00;1.90;;;25.70;42.60;;;;;;5074772;28;20411;-67
2022/06/28 10:19:18;;;;;;;3.27;1.70;;;25.60;42.40;;;;;;5073694;28;20459;-64
2022/06/28 10:22:07;;;;;;;3.07;1.93;;;25.50;42.40;;;;;;5058750;28;20444;-66
2022/06/28 10:24:50;;;;;;;3.80;1.70;;;25.40;42.60;;;;;;5054751;28;20448;-68
2022/06/28 10:27:17;;;;;;;3.23;2.10;;;25.40;42.70;;;;;;5051189;28;20550;-65
2022/06/28 10:30:18;;;;;;;2.77;2.07;;;25.40;42.60;;;;;;5054375;28;20979;-64
2022/06/28 10:32:46;;;;;;;6.40;2.10;;;25.10;43.50;;;;;;5054339;28;20502;-64
2022/06/28 10:36:04;;;;;;;4.30;1.80;;;25.30;43.10;;;;;;5053608;28;20861;-64
2022/06/28 10:38:33;;;;;;;3.03;1.90;;;25.40;42.90;;;;;;5053608;28;20527;-68
2022/06/28 10:41:14;;;;;;;3.60;2.00;;;25.70;42.60;;;;;;5073850;28;20443;-65
2022/06/28 10:43:50;;;;;;;2.20;1.50;;;25.70;41.80;;;;;;5073652;28;20446;-65
2022/06/28 10:46:17;;;;;;;2.93;1.80;;;25.80;41.40;;;;;;5086249;28;20465;-64
2022/06/28 10:49:04;;;;;;;3.53;1.87;;;25.90;41.00;;;;;;5074654;28;20435;-63
2022/06/28 10:51:33;;;;;;;3.63;1.47;;;26.10;40.60;;;;;;5074146;28;20474;-64
2022/06/28 10:54:06;;;;;;;3.13;1.80;;;26.40;40.30;;;;;;5061532;28;20448;-65
2022/06/28 10:56:38;;;;;;;3.00;1.83;;;26.40;39.70;;;;;;5059232;28;20972;-65
2022/06/28 10:59:08;;;;;;;4.60;2.00;;;26.30;39.70;;;;;;5073841;28;20432;-66
2022/06/28 11:01:56;;;;;;;3.83;1.77;;;26.40;39.90;;;;;;5072029;28;20474;-65
2022/06/28 11:04:31;;;;;;;2.77;1.77;;;26.70;38.70;;;;;;5072855;28;20466;-64
2022/06/28 11:07:01;;;;;;;3.37;1.80;;;26.50;38.70;;;;;;5057170;28;20478;-66
2022/06/28 11:09:57;;;;;;;1.90;1.60;;;26.60;39.00;;;;;;5087316;28;20470;-66
2022/06/28 11:12:39;;;;;;;3.40;1.70;;;27.00;38.40;;;;;;5094132;28;20434;-66
2022/06/28 11:15:08;;;;;;;3.20;1.90;;;26.80;38.20;;;;;;5062189;28;20444;-65
2022/06/28 11:17:38;;;;;;;2.70;2.00;;;26.80;38.40;;;;;;5053260;28;20460;-64
2022/06/28 11:20:07;;;;;;;2.00;1.50;;;26.80;38.60;;;;;;5054205;28;20494;-64
2022/06/28 11:22:39;;;;;;;4.23;1.60;;;26.80;38.60;;;;;;5055059;28;20494;-63
2022/06/28 11:25:10;;;;;;;4.07;1.80;;;26.60;39.10;;;;;;5073816;28;20453;-64
2022/06/28 11:27:44;;;;;;;2.80;2.10;;;26.60;39.20;;;;;;5073312;28;20517;-64
2022/06/28 11:30:11;;;;;;;3.07;1.80;;;27.00;38.80;;;;;;5072831;28;20756;-64
2022/06/28 11:32:40;;;;;;;2.90;1.63;;;27.10;38.20;;;;;;5069586;28;20549;-65
2022/06/28 11:35:09;;;;;;;1.60;1.50;;;27.10;37.80;;;;;;5054915;28;20538;-65
2022/06/28 11:37:49;;;;;;;2.33;1.40;;;27.00;37.80;;;;;;5055243;28;20500;-65
2022/06/28 11:40:18;;;;;;;3.30;1.97;;;27.00;37.80;;;;;;5055464;28;20440;-64
2022/06/28 11:42:46;;;;;;;3.50;1.90;;;27.20;37.70;;;;;;5073690;28;20520;-66
2022/06/28 11:45:15;;;;;;;4.40;2.30;;;27.40;37.40;;;;;;5087366;28;20461;-62
2022/06/28 11:47:43;;;;;;;2.80;1.80;;;27.30;37.20;;;;;;5093469;28;21054;-65
2022/06/28 11:50:18;;;;;;;2.77;1.70;;;27.10;37.50;;;;;;5078532;28;20482;-66
2022/06/28 11:52:50;;;;;;;2.00;1.70;;;26.60;38.10;;;;;;5073582;28;20465;-65
2022/06/28 11:55:20;;;;;;;4.27;1.87;;;26.40;38.40;;;;;;5073372;28;20820;-64
2022/06/28 11:57:48;;;;;;;2.50;2.07;;;26.50;38.40;;;;;;5072848;28;20544;-65
2022/06/28 12:00:17;;;;;;;4.03;1.73;;;26.90;38.00;;;;;;5073604;28;20447;-65
2022/06/28 12:02:49;;;;;;;2.53;1.77;;;27.10;37.60;;;;;;5072254;28;20465;-65
2022/06/28 12:05:31;;;;;;;2.07;1.60;;;27.00;37.70;;;;;;5072805;28;20443;-64
2022/06/28 12:07:59;;;;;;;4.10;2.30;;;27.10;37.50;;;;;;5073143;28;20599;-65
2022/06/28 12:10:30;;;;;;;2.27;1.97;;;27.60;37.00;;;;;;5073019;28;20459;-66
2022/06/28 12:12:58;;;;;;;2.40;1.60;;;27.90;36.40;;;;;;5067014;28;20911;-64
2022/06/28 12:15:30;;;;;;;1.53;1.40;;;28.00;36.10;;;;;;5072998;28;20450;-65
2022/06/28 12:18:01;;;;;;;2.40;1.60;;;28.60;35.40;;;;;;5073047;28;20485;-66
2022/06/28 12:20:29;;;;;;;2.00;1.80;;;29.30;34.50;;;;;;5073401;28;20462;-65
2022/06/28 12:22:58;;;;;;;4.30;3.90;;;30.00;33.50;;;;;;5061739;28;20448;-66
2022/06/28 12:25:25;;;;;;;3.63;3.33;;;30.40;32.60;;;;;;5060860;28;20448;-66
2022/06/28 12:27:54;;;;;;;2.03;1.70;;;31.00;31.90;;;;;;5070799;28;20563;-64
2022/06/28 12:30:22;;;;;;;2.03;1.63;;;31.10;31.40;;;;;;5073591;28;20528;-64
2022/06/28 12:32:52;;;;;;;2.93;1.40;;;30.70;31.40;;;;;;5078765;28;20462;-65
2022/06/28 12:35:19;;;;;;;3.47;2.93;;;30.60;31.70;;;;;;5085119;28;20463;-64
2022/06/28 12:37:47;;;;;;;3.40;1.80;;;30.90;31.20;;;;;;5072687;28;20464;-65
2022/06/28 12:40:15;;;;;;;3.60;3.30;;;31.20;30.90;;;;;;5071069;28;20562;-65
2022/06/28 12:42:42;;;;;;;4.20;2.20;;;31.20;31.10;;;;;;5079272;28;20462;-64
2022/06/28 12:45:12;;;;;;;4.73;1.77;;;31.30;31.10;;;;;;5076481;28;20794;-65
2022/06/28 12:47:41;;;;;;;4.73;2.00;;;31.30;31.20;;;;;;5078255;28;20518;-64
2022/06/28 12:50:13;;;;;;;1.63;1.50;;;31.00;31.50;;;;;;5096822;28;20523;-64
2022/06/28 12:52:41;;;;;;;2.20;1.87;;;30.60;32.00;;;;;;5097010;28;20836;-64
2022/06/28 12:55:11;;;;;;;2.23;1.80;;;30.00;32.50;;;;;;5096482;28;20446;-64
2022/06/28 12:57:39;;;;;;;2.00;1.27;;;29.50;33.20;;;;;;5080419;28;20485;-65
2022/06/28 13:00:10;;;;;;;3.63;1.90;;;29.10;33.10;;;;;;5075857;28;20447;-66
2022/06/28 13:02:39;;;;;;;4.23;1.63;;;28.70;33.00;;;;;;5078092;28;20431;-63